sensor_id;sensor_type;location;lat;lon;timestamp;P1;durP1;ratioP1;P2;durP2;ratioP2
31978;SDS011;18502;43.574;1.276;2022-11-20T00:00:40;9.77;;;3.33;;
31978;SDS011;18502;43.574;1.276;2022-11-20T00:03:06;8.80;;;3.05;;
31978;SDS011;18502;43.574;1.276;2022-11-20T00:05:32;4.22;;;2.40;;
31978;SDS011;18502;43.574;1.276;2022-11-20T00:07:58;7.93;;;3.63;;
31978;SDS011;18502;43.574;1.276;2022-11-20T00:10:24;10.32;;;4.22;;
31978;SDS011;18502;43.574;1.276;2022-11-20T00:12:49;8.10;;;4.45;;
31978;SDS011;18502;43.574;1.276;2022-11-20T00:15:15;7.97;;;3.75;;
31978;SDS011;18502;43.574;1.276;2022-11-20T00:17:41;11.68;;;3.83;;
31978;SDS011;18502;43.574;1.276;2022-11-20T00:20:07;9.57;;;4.50;;
31978;SDS011;18502;43.574;1.276;2022-11-20T00:22:33;14.32;;;4.22;;
31978;SDS011;18502;43.574;1.276;2022-11-20T00:24:59;10.50;;;5.00;;
31978;SDS011;18502;43.574;1.276;2022-11-20T00:27:24;15.05;;;4.95;;
31978;SDS011;18502;43.574;1.276;2022-11-20T00:29:50;10.40;;;4.00;;
31978;SDS011;18502;43.574;1.276;2022-11-20T00:32:15;6.18;;;3.05;;
31978;SDS011;18502;43.574;1.276;2022-11-20T00:34:41;8.98;;;3.20;;
31978;SDS011;18502;43.574;1.276;2022-11-20T00:37:07;8.32;;;4.25;;
31978;SDS011;18502;43.574;1.276;2022-11-20T00:39:32;12.68;;;4.50;;
31978;SDS011;18502;43.574;1.276;2022-11-20T00:41:58;7.43;;;3.88;;
31978;SDS011;18502;43.574;1.276;2022-11-20T00:44:24;4.43;;;2.58;;
31978;SDS011;18502;43.574;1.276;2022-11-20T00:46:49;6.50;;;2.40;;
31978;SDS011;18502;43.574;1.276;2022-11-20T09:14:21;7.20;;;3.63;;
31978;SDS011;18502;43.574;1.276;2022-11-20T09:16:49;7.32;;;3.45;;
31978;SDS011;18502;43.574;1.276;2022-11-20T09:19:15;7.63;;;4.28;;
31978;SDS011;18502;43.574;1.276;2022-11-20T09:21:40;7.63;;;4.22;;
31978;SDS011;18502;43.574;1.276;2022-11-20T09:24:06;9.52;;;3.92;;
31978;SDS011;18502;43.574;1.276;2022-11-20T09:26:32;6.28;;;4.03;;
31978;SDS011;18502;43.574;1.276;2022-11-20T09:28:57;7.40;;;4.20;;
31978;SDS011;18502;43.574;1.276;2022-11-20T09:31:24;7.72;;;4.43;;
31978;SDS011;18502;43.574;1.276;2022-11-20T09:33:51;6.32;;;3.38;;
31978;SDS011;18502;43.574;1.276;2022-11-20T09:36:16;6.50;;;4.15;;
31978;SDS011;18502;43.574;1.276;2022-11-20T09:38:44;6.88;;;4.20;;
31978;SDS011;18502;43.574;1.276;2022-11-20T09:41:18;6.70;;;3.75;;
31978;SDS011;18502;43.574;1.276;2022-11-20T09:44:02;9.55;;;3.50;;
31978;SDS011;18502;43.574;1.276;2022-11-20T09:50:10;5.88;;;2.67;;
31978;SDS011;18502;43.574;1.276;2022-11-20T09:52:53;5.57;;;2.55;;
31978;SDS011;18502;43.574;1.276;2022-11-20T09:55:20;4.68;;;2.80;;
31978;SDS011;18502;43.574;1.276;2022-11-20T09:57:47;5.45;;;2.63;;
31978;SDS011;18502;43.574;1.276;2022-11-20T10:00:14;5.53;;;2.80;;
31978;SDS011;18502;43.574;1.276;2022-11-20T10:02:46;6.70;;;3.22;;
31978;SDS011;18502;43.574;1.276;2022-11-20T10:06:02;4.72;;;2.45;;
31978;SDS011;18502;43.574;1.276;2022-11-20T10:08:21;3.28;;;2.22;;
31978;SDS011;18502;43.574;1.276;2022-11-20T10:10:52;4.63;;;2.40;;
31978;SDS011;18502;43.574;1.276;2022-11-20T10:30:20;2.95;;;1.80;;
31978;SDS011;18502;43.574;1.276;2022-11-20T10:32:51;3.95;;;1.50;;
31978;SDS011;18502;43.574;1.276;2022-11-20T10:35:24;1.92;;;1.35;;
31978;SDS011;18502;43.574;1.276;2022-11-20T10:37:58;2.28;;;1.45;;
31978;SDS011;18502;43.574;1.276;2022-11-20T10:43:07;2.53;;;1.40;;
31978;SDS011;18502;43.574;1.276;2022-11-20T10:48:27;3.10;;;2.05;;
31978;SDS011;18502;43.574;1.276;2022-11-20T10:56:05;2.53;;;1.70;;
31978;SDS011;18502;43.574;1.276;2022-11-20T10:59:00;1.73;;;1.20;;
31978;SDS011;18502;43.574;1.276;2022-11-20T11:01:42;3.50;;;2.05;;
31978;SDS011;18502;43.574;1.276;2022-11-20T11:04:54;2.22;;;1.50;;
31978;SDS011;18502;43.574;1.276;2022-11-20T11:07:06;5.85;;;2.13;;
31978;SDS011;18502;43.574;1.276;2022-11-20T11:09:41;3.53;;;1.58;;
31978;SDS011;18502;43.574;1.276;2022-11-20T11:12:11;3.75;;;2.35;;
31978;SDS011;18502;43.574;1.276;2022-11-20T11:14:44;3.08;;;2.05;;
31978;SDS011;18502;43.574;1.276;2022-11-20T11:17:33;1.80;;;0.98;;
31978;SDS011;18502;43.574;1.276;2022-11-20T11:20:21;4.05;;;1.52;;
31978;SDS011;18502;43.574;1.276;2022-11-20T11:22:50;1.48;;;1.30;;
31978;SDS011;18502;43.574;1.276;2022-11-20T11:25:30;1.55;;;1.13;;
31978;SDS011;18502;43.574;1.276;2022-11-20T11:28:04;2.00;;;1.25;;
31978;SDS011;18502;43.574;1.276;2022-11-20T11:30:44;1.70;;;1.20;;
31978;SDS011;18502;43.574;1.276;2022-11-20T11:33:21;3.03;;;1.70;;
31978;SDS011;18502;43.574;1.276;2022-11-20T11:35:50;2.75;;;1.70;;
31978;SDS011;18502;43.574;1.276;2022-11-20T11:38:36;1.80;;;1.30;;
31978;SDS011;18502;43.574;1.276;2022-11-20T11:41:04;1.75;;;1.23;;
31978;SDS011;18502;43.574;1.276;2022-11-20T11:43:34;3.08;;;1.25;;
31978;SDS011;18502;43.574;1.276;2022-11-20T11:54:22;3.63;;;1.75;;
31978;SDS011;18502;43.574;1.276;2022-11-20T11:56:50;3.10;;;1.50;;
31978;SDS011;18502;43.574;1.276;2022-11-20T11:59:33;3.40;;;1.10;;
31978;SDS011;18502;43.574;1.276;2022-11-20T12:02:31;1.65;;;1.10;;
31978;SDS011;18502;43.574;1.276;2022-11-20T12:07:53;2.00;;;1.45;;
31978;SDS011;18502;43.574;1.276;2022-11-20T12:15:59;1.85;;;1.13;;
31978;SDS011;18502;43.574;1.276;2022-11-20T12:18:27;3.75;;;1.60;;
31978;SDS011;18502;43.574;1.276;2022-11-20T12:34:43;2.30;;;0.90;;
31978;SDS011;18502;43.574;1.276;2022-11-20T12:37:33;0.80;;;0.43;;
31978;SDS011;18502;43.574;1.276;2022-11-20T12:43:21;2.55;;;1.60;;
31978;SDS011;18502;43.574;1.276;2022-11-20T12:46:18;2.45;;;0.70;;
31978;SDS011;18502;43.574;1.276;2022-11-20T12:48:53;1.65;;;0.60;;
31978;SDS011;18502;43.574;1.276;2022-11-20T12:51:34;2.63;;;0.80;;
31978;SDS011;18502;43.574;1.276;2022-11-20T13:08:03;1.25;;;0.93;;
31978;SDS011;18502;43.574;1.276;2022-11-20T13:10:49;2.72;;;0.68;;
31978;SDS011;18502;43.574;1.276;2022-11-20T13:16:00;13.27;;;6.63;;
31978;SDS011;18502;43.574;1.276;2022-11-20T13:18:38;6.93;;;3.17;;
31978;SDS011;18502;43.574;1.276;2022-11-20T13:21:35;4.80;;;1.60;;
31978;SDS011;18502;43.574;1.276;2022-11-20T13:24:38;3.17;;;1.48;;
31978;SDS011;18502;43.574;1.276;2022-11-20T13:29:31;5.53;;;1.92;;
31978;SDS011;18502;43.574;1.276;2022-11-20T13:32:13;6.90;;;5.03;;
31978;SDS011;18502;43.574;1.276;2022-11-20T13:37:48;1.92;;;0.88;;
31978;SDS011;18502;43.574;1.276;2022-11-20T13:40:25;2.40;;;1.58;;
31978;SDS011;18502;43.574;1.276;2022-11-20T13:42:56;3.65;;;1.50;;
31978;SDS011;18502;43.574;1.276;2022-11-20T13:45:29;7.05;;;1.60;;
31978;SDS011;18502;43.574;1.276;2022-11-20T13:47:57;5.43;;;1.42;;
31978;SDS011;18502;43.574;1.276;2022-11-20T14:01:11;2.33;;;1.00;;
31978;SDS011;18502;43.574;1.276;2022-11-20T14:03:42;6.72;;;1.40;;
31978;SDS011;18502;43.574;1.276;2022-11-20T14:06:25;4.75;;;1.27;;
31978;SDS011;18502;43.574;1.276;2022-11-20T14:08:56;7.32;;;2.40;;
31978;SDS011;18502;43.574;1.276;2022-11-20T14:11:24;4.85;;;1.25;;
31978;SDS011;18502;43.574;1.276;2022-11-20T14:13:56;7.68;;;1.80;;
31978;SDS011;18502;43.574;1.276;2022-11-20T14:16:29;6.60;;;1.75;;
31978;SDS011;18502;43.574;1.276;2022-11-20T14:19:22;20.35;;;3.55;;
31978;SDS011;18502;43.574;1.276;2022-11-20T14:21:45;13.75;;;2.03;;
31978;SDS011;18502;43.574;1.276;2022-11-20T14:24:12;7.55;;;2.03;;
31978;SDS011;18502;43.574;1.276;2022-11-20T14:26:42;6.35;;;1.63;;
31978;SDS011;18502;43.574;1.276;2022-11-20T14:29:19;7.07;;;2.65;;
31978;SDS011;18502;43.574;1.276;2022-11-20T14:31:52;9.52;;;2.47;;
31978;SDS011;18502;43.574;1.276;2022-11-20T14:34:23;7.53;;;2.30;;
31978;SDS011;18502;43.574;1.276;2022-11-20T14:36:52;10.43;;;2.45;;
31978;SDS011;18502;43.574;1.276;2022-11-20T14:39:29;12.68;;;2.72;;
31978;SDS011;18502;43.574;1.276;2022-11-20T14:41:59;9.75;;;2.28;;
31978;SDS011;18502;43.574;1.276;2022-11-20T14:44:32;7.45;;;2.55;;
31978;SDS011;18502;43.574;1.276;2022-11-20T14:47:00;11.85;;;3.03;;
31978;SDS011;18502;43.574;1.276;2022-11-20T14:49:28;14.20;;;2.83;;
31978;SDS011;18502;43.574;1.276;2022-11-20T14:51:59;11.18;;;2.17;;
31978;SDS011;18502;43.574;1.276;2022-11-20T14:54:49;13.23;;;3.22;;
31978;SDS011;18502;43.574;1.276;2022-11-20T14:57:30;9.02;;;2.10;;
31978;SDS011;18502;43.574;1.276;2022-11-20T15:00:08;15.32;;;2.67;;
31978;SDS011;18502;43.574;1.276;2022-11-20T15:02:46;18.48;;;2.25;;
31978;SDS011;18502;43.574;1.276;2022-11-20T15:05:14;13.90;;;2.88;;
31978;SDS011;18502;43.574;1.276;2022-11-20T15:07:41;12.52;;;3.20;;
31978;SDS011;18502;43.574;1.276;2022-11-20T15:10:19;11.45;;;2.67;;
31978;SDS011;18502;43.574;1.276;2022-11-20T15:12:47;13.98;;;2.78;;
31978;SDS011;18502;43.574;1.276;2022-11-20T15:15:17;13.77;;;2.80;;
31978;SDS011;18502;43.574;1.276;2022-11-20T15:17:48;16.30;;;4.22;;
31978;SDS011;18502;43.574;1.276;2022-11-20T15:20:14;10.38;;;3.30;;
31978;SDS011;18502;43.574;1.276;2022-11-20T15:22:41;21.58;;;3.30;;
31978;SDS011;18502;43.574;1.276;2022-11-20T15:25:13;21.70;;;4.95;;
31978;SDS011;18502;43.574;1.276;2022-11-20T15:27:41;12.23;;;2.45;;
31978;SDS011;18502;43.574;1.276;2022-11-20T15:30:15;15.48;;;3.38;;
31978;SDS011;18502;43.574;1.276;2022-11-20T15:32:42;16.10;;;3.92;;
31978;SDS011;18502;43.574;1.276;2022-11-20T15:35:09;14.90;;;3.20;;
31978;SDS011;18502;43.574;1.276;2022-11-20T15:37:35;13.80;;;4.47;;
31978;SDS011;18502;43.574;1.276;2022-11-20T15:40:04;17.67;;;3.63;;
31978;SDS011;18502;43.574;1.276;2022-11-20T15:42:30;16.95;;;4.18;;
31978;SDS011;18502;43.574;1.276;2022-11-20T15:44:57;18.00;;;3.58;;
31978;SDS011;18502;43.574;1.276;2022-11-20T15:47:25;15.55;;;4.45;;
31978;SDS011;18502;43.574;1.276;2022-11-20T15:49:59;20.38;;;5.68;;
31978;SDS011;18502;43.574;1.276;2022-11-20T15:52:25;12.85;;;3.35;;
31978;SDS011;18502;43.574;1.276;2022-11-20T15:54:50;18.98;;;6.13;;
31978;SDS011;18502;43.574;1.276;2022-11-20T15:57:16;23.77;;;5.55;;
31978;SDS011;18502;43.574;1.276;2022-11-20T15:59:42;17.90;;;3.97;;
31978;SDS011;18502;43.574;1.276;2022-11-20T16:02:11;13.48;;;3.88;;
31978;SDS011;18502;43.574;1.276;2022-11-20T16:04:38;19.17;;;5.32;;
31978;SDS011;18502;43.574;1.276;2022-11-20T16:07:04;14.23;;;3.63;;
31978;SDS011;18502;43.574;1.276;2022-11-20T16:09:30;17.63;;;4.00;;
31978;SDS011;18502;43.574;1.276;2022-11-20T16:11:55;15.40;;;2.90;;
31978;SDS011;18502;43.574;1.276;2022-11-20T16:14:24;10.27;;;2.85;;
31978;SDS011;18502;43.574;1.276;2022-11-20T16:17:09;13.05;;;2.47;;
31978;SDS011;18502;43.574;1.276;2022-11-20T16:19:34;15.52;;;3.80;;
31978;SDS011;18502;43.574;1.276;2022-11-20T16:22:00;14.38;;;3.28;;
31978;SDS011;18502;43.574;1.276;2022-11-20T16:24:26;13.40;;;2.40;;
31978;SDS011;18502;43.574;1.276;2022-11-20T16:26:55;9.88;;;2.10;;
31978;SDS011;18502;43.574;1.276;2022-11-20T16:29:21;7.00;;;1.97;;
31978;SDS011;18502;43.574;1.276;2022-11-20T16:31:47;12.40;;;2.72;;
31978;SDS011;18502;43.574;1.276;2022-11-20T16:34:15;11.57;;;2.22;;
31978;SDS011;18502;43.574;1.276;2022-11-20T16:36:41;19.48;;;8.95;;
31978;SDS011;18502;43.574;1.276;2022-11-20T16:39:08;13.07;;;3.72;;
31978;SDS011;18502;43.574;1.276;2022-11-20T16:41:35;16.13;;;4.53;;
31978;SDS011;18502;43.574;1.276;2022-11-20T16:44:02;13.43;;;5.38;;
31978;SDS011;18502;43.574;1.276;2022-11-20T16:46:32;9.63;;;3.67;;
31978;SDS011;18502;43.574;1.276;2022-11-20T16:49:05;19.23;;;8.38;;
31978;SDS011;18502;43.574;1.276;2022-11-20T16:51:35;23.15;;;9.27;;
31978;SDS011;18502;43.574;1.276;2022-11-20T16:54:02;18.10;;;6.18;;
31978;SDS011;18502;43.574;1.276;2022-11-20T16:56:29;15.88;;;3.22;;
31978;SDS011;18502;43.574;1.276;2022-11-20T16:58:56;16.30;;;6.53;;
31978;SDS011;18502;43.574;1.276;2022-11-20T17:01:23;12.05;;;2.67;;
31978;SDS011;18502;43.574;1.276;2022-11-20T17:06:20;17.77;;;5.13;;
31978;SDS011;18502;43.574;1.276;2022-11-20T17:08:48;22.40;;;8.48;;
31978;SDS011;18502;43.574;1.276;2022-11-20T17:11:15;19.52;;;5.30;;
31978;SDS011;18502;43.574;1.276;2022-11-20T17:13:42;23.70;;;7.45;;
31978;SDS011;18502;43.574;1.276;2022-11-20T17:16:12;12.77;;;3.92;;
31978;SDS011;18502;43.574;1.276;2022-11-20T17:18:40;31.73;;;11.75;;
31978;SDS011;18502;43.574;1.276;2022-11-20T17:21:06;12.55;;;3.50;;
31978;SDS011;18502;43.574;1.276;2022-11-20T17:23:36;24.33;;;7.47;;
31978;SDS011;18502;43.574;1.276;2022-11-20T17:26:04;13.27;;;3.45;;
31978;SDS011;18502;43.574;1.276;2022-11-20T17:28:30;11.75;;;2.53;;
31978;SDS011;18502;43.574;1.276;2022-11-20T17:31:03;20.23;;;6.53;;
31978;SDS011;18502;43.574;1.276;2022-11-20T17:33:32;16.17;;;3.42;;
31978;SDS011;18502;43.574;1.276;2022-11-20T17:35:59;12.57;;;4.22;;
31978;SDS011;18502;43.574;1.276;2022-11-20T17:38:25;14.50;;;4.32;;
31978;SDS011;18502;43.574;1.276;2022-11-20T17:40:51;9.50;;;2.10;;
31978;SDS011;18502;43.574;1.276;2022-11-20T17:43:16;6.65;;;1.95;;
31978;SDS011;18502;43.574;1.276;2022-11-20T17:45:42;14.75;;;3.58;;
31978;SDS011;18502;43.574;1.276;2022-11-20T17:48:09;17.58;;;4.32;;
31978;SDS011;18502;43.574;1.276;2022-11-20T17:50:35;8.45;;;2.92;;
31978;SDS011;18502;43.574;1.276;2022-11-20T17:53:01;13.75;;;3.85;;
31978;SDS011;18502;43.574;1.276;2022-11-20T17:55:26;9.50;;;2.45;;
31978;SDS011;18502;43.574;1.276;2022-11-20T17:58:12;6.07;;;1.33;;
31978;SDS011;18502;43.574;1.276;2022-11-20T18:00:38;12.65;;;2.22;;
31978;SDS011;18502;43.574;1.276;2022-11-20T18:03:03;12.30;;;4.30;;
31978;SDS011;18502;43.574;1.276;2022-11-20T18:05:29;11.80;;;3.90;;
31978;SDS011;18502;43.574;1.276;2022-11-20T18:07:55;13.93;;;3.72;;
31978;SDS011;18502;43.574;1.276;2022-11-20T18:10:20;7.70;;;2.45;;
31978;SDS011;18502;43.574;1.276;2022-11-20T18:12:46;17.20;;;3.78;;
31978;SDS011;18502;43.574;1.276;2022-11-20T18:15:12;16.98;;;5.10;;
31978;SDS011;18502;43.574;1.276;2022-11-20T18:17:37;13.93;;;4.40;;
31978;SDS011;18502;43.574;1.276;2022-11-20T18:20:03;16.40;;;3.50;;
31978;SDS011;18502;43.574;1.276;2022-11-20T18:22:29;13.68;;;4.30;;
31978;SDS011;18502;43.574;1.276;2022-11-20T18:24:55;20.73;;;4.25;;
31978;SDS011;18502;43.574;1.276;2022-11-20T18:27:20;11.23;;;4.85;;
31978;SDS011;18502;43.574;1.276;2022-11-20T18:29:48;15.43;;;4.55;;
31978;SDS011;18502;43.574;1.276;2022-11-20T18:32:15;13.57;;;4.97;;
31978;SDS011;18502;43.574;1.276;2022-11-20T18:34:42;20.27;;;5.57;;
31978;SDS011;18502;43.574;1.276;2022-11-20T18:37:08;16.60;;;5.00;;
31978;SDS011;18502;43.574;1.276;2022-11-20T18:39:34;20.23;;;6.28;;
31978;SDS011;18502;43.574;1.276;2022-11-20T18:42:00;17.85;;;6.07;;
31978;SDS011;18502;43.574;1.276;2022-11-20T18:44:44;17.45;;;4.30;;
31978;SDS011;18502;43.574;1.276;2022-11-20T18:52:21;11.07;;;2.58;;
31978;SDS011;18502;43.574;1.276;2022-11-20T18:54:47;10.07;;;2.15;;
31978;SDS011;18502;43.574;1.276;2022-11-20T18:57:14;11.20;;;3.10;;
31978;SDS011;18502;43.574;1.276;2022-11-20T18:59:43;10.35;;;2.40;;
31978;SDS011;18502;43.574;1.276;2022-11-20T19:02:09;11.63;;;2.42;;
31978;SDS011;18502;43.574;1.276;2022-11-20T19:04:39;10.30;;;1.90;;
31978;SDS011;18502;43.574;1.276;2022-11-20T19:07:05;10.18;;;3.45;;
31978;SDS011;18502;43.574;1.276;2022-11-20T19:09:31;13.48;;;6.35;;
31978;SDS011;18502;43.574;1.276;2022-11-20T19:11:57;10.38;;;4.97;;
31978;SDS011;18502;43.574;1.276;2022-11-20T19:14:23;18.70;;;6.75;;
31978;SDS011;18502;43.574;1.276;2022-11-20T19:16:49;7.20;;;4.22;;
31978;SDS011;18502;43.574;1.276;2022-11-20T19:19:15;11.57;;;5.55;;
31978;SDS011;18502;43.574;1.276;2022-11-20T19:21:41;10.98;;;4.00;;
31978;SDS011;18502;43.574;1.276;2022-11-20T19:24:07;9.73;;;2.30;;
31978;SDS011;18502;43.574;1.276;2022-11-20T19:26:34;11.57;;;2.70;;
31978;SDS011;18502;43.574;1.276;2022-11-20T19:29:01;11.77;;;2.55;;
31978;SDS011;18502;43.574;1.276;2022-11-20T19:31:30;9.25;;;2.08;;
31978;SDS011;18502;43.574;1.276;2022-11-20T19:33:57;9.93;;;2.20;;
31978;SDS011;18502;43.574;1.276;2022-11-20T19:36:25;16.52;;;2.83;;
31978;SDS011;18502;43.574;1.276;2022-11-20T19:38:53;8.98;;;2.25;;
31978;SDS011;18502;43.574;1.276;2022-11-20T19:41:21;8.20;;;1.98;;
31978;SDS011;18502;43.574;1.276;2022-11-20T19:43:58;12.23;;;3.88;;
31978;SDS011;18502;43.574;1.276;2022-11-20T19:46:27;9.98;;;1.70;;
31978;SDS011;18502;43.574;1.276;2022-11-20T19:48:55;11.10;;;2.00;;
31978;SDS011;18502;43.574;1.276;2022-11-20T19:51:25;12.45;;;2.95;;
31978;SDS011;18502;43.574;1.276;2022-11-20T19:53:53;14.75;;;3.70;;
31978;SDS011;18502;43.574;1.276;2022-11-20T19:56:23;21.25;;;5.80;;
31978;SDS011;18502;43.574;1.276;2022-11-20T19:58:54;21.35;;;6.45;;
31978;SDS011;18502;43.574;1.276;2022-11-20T20:01:21;19.10;;;5.22;;
31978;SDS011;18502;43.574;1.276;2022-11-20T20:03:48;13.60;;;4.60;;
31978;SDS011;18502;43.574;1.276;2022-11-20T20:06:16;18.23;;;6.35;;
31978;SDS011;18502;43.574;1.276;2022-11-20T20:08:52;20.10;;;6.18;;
31978;SDS011;18502;43.574;1.276;2022-11-20T20:11:19;21.65;;;6.00;;
31978;SDS011;18502;43.574;1.276;2022-11-20T20:13:47;15.32;;;6.10;;
31978;SDS011;18502;43.574;1.276;2022-11-20T20:16:13;18.02;;;5.22;;
31978;SDS011;18502;43.574;1.276;2022-11-20T20:18:40;19.15;;;5.53;;
31978;SDS011;18502;43.574;1.276;2022-11-20T20:21:08;14.00;;;4.53;;
31978;SDS011;18502;43.574;1.276;2022-11-20T20:23:34;21.27;;;6.82;;
31978;SDS011;18502;43.574;1.276;2022-11-20T20:26:01;22.80;;;8.38;;
31978;SDS011;18502;43.574;1.276;2022-11-20T20:28:28;20.48;;;6.07;;
31978;SDS011;18502;43.574;1.276;2022-11-20T20:30:54;17.50;;;5.95;;
31978;SDS011;18502;43.574;1.276;2022-11-20T20:33:20;16.13;;;6.43;;
31978;SDS011;18502;43.574;1.276;2022-11-20T20:35:45;17.13;;;6.10;;
31978;SDS011;18502;43.574;1.276;2022-11-20T20:38:11;13.85;;;4.68;;
31978;SDS011;18502;43.574;1.276;2022-11-20T20:40:37;27.98;;;12.25;;
31978;SDS011;18502;43.574;1.276;2022-11-20T20:43:02;15.27;;;3.83;;
31978;SDS011;18502;43.574;1.276;2022-11-20T20:45:28;13.80;;;4.05;;
31978;SDS011;18502;43.574;1.276;2022-11-20T20:47:54;16.13;;;6.22;;
31978;SDS011;18502;43.574;1.276;2022-11-20T20:50:20;15.98;;;5.38;;
31978;SDS011;18502;43.574;1.276;2022-11-20T20:52:46;20.23;;;6.43;;
31978;SDS011;18502;43.574;1.276;2022-11-20T20:55:12;19.85;;;8.40;;
31978;SDS011;18502;43.574;1.276;2022-11-20T20:57:38;11.80;;;4.80;;
31978;SDS011;18502;43.574;1.276;2022-11-20T21:00:04;11.63;;;3.83;;
31978;SDS011;18502;43.574;1.276;2022-11-20T21:02:31;15.23;;;3.75;;
31978;SDS011;18502;43.574;1.276;2022-11-20T21:04:57;11.25;;;3.08;;
31978;SDS011;18502;43.574;1.276;2022-11-20T21:07:24;14.27;;;3.83;;
31978;SDS011;18502;43.574;1.276;2022-11-20T21:09:49;11.77;;;3.85;;
31978;SDS011;18502;43.574;1.276;2022-11-20T21:12:15;13.38;;;3.60;;
31978;SDS011;18502;43.574;1.276;2022-11-20T21:14:41;12.88;;;3.15;;
31978;SDS011;18502;43.574;1.276;2022-11-20T21:17:07;12.68;;;4.65;;
31978;SDS011;18502;43.574;1.276;2022-11-20T21:19:33;13.88;;;3.58;;
31978;SDS011;18502;43.574;1.276;2022-11-20T21:21:59;11.13;;;2.60;;
31978;SDS011;18502;43.574;1.276;2022-11-20T21:24:27;13.32;;;2.92;;
31978;SDS011;18502;43.574;1.276;2022-11-20T21:26:54;13.35;;;2.55;;
31978;SDS011;18502;43.574;1.276;2022-11-20T21:29:21;12.13;;;2.97;;
31978;SDS011;18502;43.574;1.276;2022-11-20T21:31:48;11.30;;;2.53;;
31978;SDS011;18502;43.574;1.276;2022-11-20T21:34:15;6.78;;;1.73;;
31978;SDS011;18502;43.574;1.276;2022-11-20T21:36:41;5.53;;;2.15;;
31978;SDS011;18502;43.574;1.276;2022-11-20T21:39:08;7.93;;;2.75;;
31978;SDS011;18502;43.574;1.276;2022-11-20T21:41:35;8.73;;;2.58;;
31978;SDS011;18502;43.574;1.276;2022-11-20T21:44:02;8.40;;;3.10;;
31978;SDS011;18502;43.574;1.276;2022-11-20T21:46:29;7.00;;;2.30;;
31978;SDS011;18502;43.574;1.276;2022-11-20T21:48:55;8.63;;;2.63;;
31978;SDS011;18502;43.574;1.276;2022-11-20T21:51:22;5.97;;;2.00;;
31978;SDS011;18502;43.574;1.276;2022-11-20T21:53:49;10.85;;;2.78;;
31978;SDS011;18502;43.574;1.276;2022-11-20T21:56:17;10.15;;;2.10;;
31978;SDS011;18502;43.574;1.276;2022-11-20T21:58:44;10.20;;;2.38;;
31978;SDS011;18502;43.574;1.276;2022-11-20T22:01:13;7.90;;;1.83;;
31978;SDS011;18502;43.574;1.276;2022-11-20T22:03:46;9.77;;;1.83;;
31978;SDS011;18502;43.574;1.276;2022-11-20T22:06:13;8.13;;;1.90;;
31978;SDS011;18502;43.574;1.276;2022-11-20T22:08:39;16.48;;;3.28;;
31978;SDS011;18502;43.574;1.276;2022-11-20T22:11:09;11.10;;;2.20;;
31978;SDS011;18502;43.574;1.276;2022-11-20T22:13:39;15.65;;;2.38;;
31978;SDS011;18502;43.574;1.276;2022-11-20T22:16:23;14.95;;;2.22;;
31978;SDS011;18502;43.574;1.276;2022-11-20T22:18:50;12.27;;;2.05;;
31978;SDS011;18502;43.574;1.276;2022-11-20T22:21:18;24.83;;;3.15;;
31978;SDS011;18502;43.574;1.276;2022-11-20T22:23:46;12.90;;;2.60;;
31978;SDS011;18502;43.574;1.276;2022-11-20T22:26:13;15.52;;;3.13;;
31978;SDS011;18502;43.574;1.276;2022-11-20T22:28:40;16.13;;;3.28;;
31978;SDS011;18502;43.574;1.276;2022-11-20T22:31:07;23.08;;;5.55;;
31978;SDS011;18502;43.574;1.276;2022-11-20T22:33:34;17.20;;;4.25;;
31978;SDS011;18502;43.574;1.276;2022-11-20T22:36:05;23.40;;;4.53;;
31978;SDS011;18502;43.574;1.276;2022-11-20T22:38:32;14.65;;;3.45;;
